createdAt,value
2019-05-01T00:01:33.120Z,25.80
2019-05-01T00:04:45.216Z,25.90
2019-05-01T00:07:46.721Z,28.15
2019-05-01T00:10:48.002Z,29.63
2019-05-01T00:13:49.487Z,29.77
2019-05-01T00:16:50.760Z,29.60
2019-05-01T00:19:52.231Z,27.52
2019-05-01T00:22:53.526Z,31.40
2019-05-01T00:25:54.918Z,33.40
2019-05-01T00:28:56.729Z,25.88
2019-05-01T00:32:01.961Z,23.38
2019-05-01T00:35:06.503Z,21.73
2019-05-01T00:38:07.910Z,21.75
2019-05-01T00:41:09.972Z,27.15
2019-05-01T00:44:11.616Z,26.82
2019-05-01T00:47:12.906Z,31.80
2019-05-01T00:50:14.659Z,24.20
2019-05-01T00:53:16.071Z,23.20
2019-05-01T00:56:19.366Z,22.27
2019-05-01T00:59:22.564Z,26.37
2019-05-01T01:02:31.947Z,26.85
2019-05-01T01:05:33.784Z,32.50
2019-05-01T01:08:35.275Z,34.83
2019-05-01T01:11:36.558Z,29.40
2019-05-01T01:14:38.426Z,33.15
2019-05-01T01:17:39.814Z,37.75
2019-05-01T01:20:41.972Z,35.70
2019-05-01T01:23:43.251Z,28.02
2019-05-01T01:26:44.539Z,27.32
2019-05-01T01:29:45.840Z,34.20
2019-05-01T01:32:47.312Z,27.05
2019-05-01T01:35:48.946Z,25.68
2019-05-01T01:38:50.263Z,29.10
2019-05-01T01:41:52.646Z,24.98
2019-05-01T01:44:56.013Z,30.80
2019-05-01T01:48:11.216Z,31.02
2019-05-01T01:51:12.605Z,25.37
2019-05-01T01:54:13.886Z,28.27
2019-05-01T01:57:15.371Z,32.15
2019-05-01T02:00:18.567Z,28.25
2019-05-01T02:03:21.030Z,32.40
2019-05-01T02:06:22.339Z,37.48
2019-05-01T02:09:23.810Z,36.15
2019-05-01T02:12:25.098Z,34.98
2019-05-01T02:15:26.570Z,34.95
2019-05-01T02:18:27.854Z,37.55
2019-05-01T02:21:29.313Z,30.82
2019-05-01T02:24:30.602Z,36.60
2019-05-01T02:27:36.941Z,38.10
2019-05-01T02:30:40.118Z,27.32
2019-05-01T02:33:42.883Z,34.80
2019-05-01T02:36:45.384Z,30.37
2019-05-01T02:39:46.829Z,39.63
2019-05-01T02:42:48.913Z,34.00
2019-05-01T02:45:53.684Z,31.90
2019-05-01T02:49:01.559Z,39.42
2019-05-01T02:52:03.564Z,33.75
2019-05-01T02:55:07.415Z,37.42
2019-05-01T02:58:08.903Z,39.73
2019-05-01T03:01:14.055Z,41.02
2019-05-01T03:04:13.543Z,38.35
2019-05-01T03:07:15.197Z,32.42
2019-05-01T03:10:16.503Z,38.53
2019-05-01T03:13:18.303Z,34.00
2019-05-01T03:16:19.679Z,29.18
2019-05-01T03:19:35.295Z,38.35
2019-05-01T03:22:44.147Z,30.48
2019-05-01T03:25:46.321Z,46.13
2019-05-01T03:28:47.587Z,39.75
2019-05-01T03:32:14.151Z,42.30
2019-05-01T03:34:53.159Z,53.87
2019-05-01T03:37:54.919Z,50.28
2019-05-01T03:40:56.209Z,38.17
2019-05-01T03:43:58.384Z,35.75
2019-05-01T03:47:00.495Z,39.75
2019-05-01T03:50:01.772Z,39.95
2019-05-01T03:53:03.266Z,35.35
2019-05-01T03:56:04.820Z,34.48
2019-05-01T03:59:06.546Z,38.60
2019-05-01T04:02:09.730Z,39.53
2019-05-01T04:05:11.197Z,34.85
2019-05-01T04:08:12.675Z,36.53
2019-05-01T04:11:14.155Z,57.50
2019-05-01T04:14:15.539Z,71.77
2019-05-01T04:17:22.386Z,70.85
2019-05-01T04:20:23.657Z,62.58
2019-05-01T04:23:25.145Z,61.85
2019-05-01T04:26:26.408Z,58.70
2019-05-01T04:29:29.656Z,55.08
2019-05-01T04:32:50.100Z,52.27
2019-05-01T04:35:49.304Z,48.08
2019-05-01T04:38:51.078Z,43.33
2019-05-01T04:41:52.383Z,42.30
2019-05-01T04:44:53.814Z,39.25
2019-05-01T04:47:55.591Z,39.58
2019-05-01T04:50:57.034Z,36.45
2019-05-01T04:53:58.317Z,36.93
2019-05-01T04:57:00.017Z,37.45
2019-05-01T05:00:03.498Z,35.52
2019-05-01T05:03:07.627Z,33.20
2019-05-01T05:06:08.918Z,34.15
2019-05-01T05:09:10.286Z,31.90
2019-05-01T05:12:16.564Z,30.10
2019-05-01T05:15:22.477Z,26.95
2019-05-01T05:18:24.052Z,27.15
2019-05-01T05:21:25.492Z,24.67
2019-05-01T05:24:26.961Z,22.32
2019-05-01T05:27:28.521Z,22.25
2019-05-01T05:30:29.818Z,19.90
2019-05-01T05:33:31.752Z,19.02
2019-05-01T05:36:33.027Z,18.85
2019-05-01T05:39:45.164Z,19.55
2019-05-01T05:42:47.114Z,20.62
2019-05-01T05:45:48.382Z,22.22
2019-05-01T05:48:49.855Z,20.82
2019-05-01T05:51:59.053Z,19.95
2019-05-01T05:55:02.525Z,21.12
2019-05-01T05:58:05.697Z,20.15
2019-05-01T06:01:24.218Z,20.80
2019-05-01T06:04:27.402Z,20.00
2019-05-01T06:07:33.494Z,20.20
2019-05-01T06:10:39.762Z,21.20
2019-05-01T06:13:56.942Z,21.12
2019-05-01T06:16:57.581Z,22.25
2019-05-01T06:20:03.530Z,22.60
2019-05-01T06:23:15.789Z,19.67
2019-05-01T06:26:26.569Z,19.67
2019-05-01T06:29:30.950Z,20.10
2019-05-01T06:32:33.487Z,19.98
2019-05-01T06:35:38.013Z,20.85
2019-05-01T06:38:38.418Z,20.43
2019-05-01T06:41:42.772Z,21.27
2019-05-01T06:44:54.482Z,20.10
2019-05-01T06:48:03.734Z,18.75
2019-05-01T06:51:23.947Z,18.23
2019-05-01T06:54:25.359Z,18.10
2019-05-01T06:57:27.213Z,16.95
2019-05-01T07:00:28.499Z,16.00
2019-05-01T07:03:30.006Z,15.35
2019-05-01T07:06:32.893Z,15.90
2019-05-01T07:09:34.675Z,16.42
2019-05-01T07:12:35.974Z,16.50
2019-05-01T07:15:37.494Z,15.32
2019-05-01T07:18:38.782Z,16.12
2019-05-01T07:21:40.293Z,15.70
2019-05-01T07:24:41.669Z,15.25
2019-05-01T07:27:43.198Z,15.13
2019-05-01T07:30:50.069Z,15.85
2019-05-01T07:33:52.787Z,15.20
2019-05-01T07:36:54.352Z,15.88
2019-05-01T07:39:56.330Z,14.55
2019-05-01T07:43:05.504Z,14.68
2019-05-01T07:46:13.784Z,15.75
2019-05-01T07:49:19.153Z,13.28
2019-05-01T07:52:20.459Z,12.37
2019-05-01T07:55:37.064Z,12.30
2019-05-01T07:58:38.377Z,11.97
2019-05-01T08:01:41.845Z,11.35
2019-05-01T08:04:43.167Z,11.00
2019-05-01T08:07:44.566Z,11.48
2019-05-01T08:10:46.001Z,11.50
2019-05-01T08:13:47.494Z,10.58
2019-05-01T08:16:48.822Z,10.08
2019-05-01T08:19:52.209Z,10.98
2019-05-01T08:22:53.631Z,10.03
2019-05-01T08:25:55.382Z,10.85
2019-05-01T08:29:05.149Z,9.83
2019-05-01T08:32:22.430Z,9.78
2019-05-01T08:35:25.718Z,10.23
2019-05-01T08:38:29.778Z,9.53
2019-05-01T08:41:31.826Z,9.25
2019-05-01T08:44:41.249Z,10.20
2019-05-01T08:47:47.187Z,10.50
2019-05-01T08:50:48.676Z,9.65
2019-05-01T08:53:52.742Z,8.70
2019-05-01T08:56:58.215Z,8.35
2019-05-01T09:00:00.426Z,8.65
2019-05-01T09:03:20.465Z,8.28
2019-05-01T09:06:34.316Z,8.38
2019-05-01T09:09:25.469Z,10.08
2019-05-01T09:12:26.751Z,8.75
2019-05-01T09:15:28.508Z,9.20
2019-05-01T09:18:29.805Z,8.20
2019-05-01T09:21:33.295Z,7.28
2019-05-01T09:24:35.154Z,7.72
2019-05-01T09:27:41.805Z,8.90
2019-05-01T09:30:44.987Z,7.80
2019-05-01T09:33:46.610Z,6.92
2019-05-01T09:36:47.963Z,6.97
2019-05-01T09:39:49.252Z,7.10
2019-05-01T09:42:54.712Z,6.83
2019-05-01T09:45:55.807Z,7.10
2019-05-01T09:48:57.280Z,6.83
2019-05-01T09:55:45.906Z,5.72
2019-05-01T09:58:47.409Z,7.37
2019-05-01T10:01:49.190Z,6.22
2019-05-01T10:04:50.473Z,6.30
2019-05-01T10:07:51.914Z,6.40
2019-05-01T10:10:53.226Z,6.30
2019-05-01T10:13:58.406Z,6.30
2019-05-01T10:16:57.928Z,6.08
2019-05-01T10:19:59.399Z,5.67
2019-05-01T10:23:00.689Z,5.70
2019-05-01T10:26:04.149Z,5.58
2019-05-01T10:29:25.903Z,5.85
2019-05-01T10:32:29.318Z,5.92
2019-05-01T10:35:43.087Z,6.08
2019-05-01T10:38:45.090Z,5.72
2019-05-01T10:41:46.442Z,6.15
2019-05-01T10:44:49.383Z,5.50
2019-05-01T10:47:50.770Z,5.25
2019-05-01T10:50:52.336Z,5.50
2019-05-01T10:53:53.912Z,6.40
2019-05-01T10:56:58.841Z,5.58
2019-05-01T10:59:59.360Z,5.97
2019-05-01T11:03:00.931Z,5.70
2019-05-01T11:06:02.311Z,5.20
2019-05-01T11:09:05.171Z,6.60
2019-05-01T11:12:06.578Z,5.62
2019-05-01T11:15:08.168Z,5.65
2019-05-01T11:18:09.590Z,5.67
2019-05-01T11:21:11.147Z,5.37
2019-05-01T11:24:12.477Z,5.17
2019-05-01T11:27:14.005Z,4.45
2019-05-01T11:30:15.369Z,5.10
2019-05-01T11:33:23.827Z,4.70
2019-05-01T11:36:29.511Z,4.55
2019-05-01T11:39:42.570Z,4.50
2019-05-01T11:42:43.885Z,4.78
2019-05-01T11:45:46.517Z,4.70
2019-05-01T11:49:07.674Z,4.60
2019-05-01T11:52:09.372Z,4.97
2019-05-01T11:55:10.846Z,4.87
2019-05-01T11:58:12.334Z,4.37
2019-05-01T12:01:15.617Z,4.78
2019-05-01T12:04:18.163Z,4.58
2019-05-01T12:07:19.556Z,4.80
2019-05-01T12:10:21.109Z,4.40
2019-05-01T12:13:22.640Z,4.45
2019-05-01T12:16:25.816Z,4.10
2019-05-01T12:19:29.148Z,4.40
2019-05-01T12:22:30.454Z,5.03
2019-05-01T12:25:31.942Z,4.60
2019-05-01T12:28:33.218Z,4.62
2019-05-01T12:31:34.590Z,4.72
2019-05-01T12:34:35.830Z,4.30
2019-05-01T12:37:41.415Z,3.98
2019-05-01T12:40:44.714Z,4.40
2019-05-01T12:43:46.247Z,4.08
2019-05-01T12:46:50.163Z,4.20
2019-05-01T12:49:53.345Z,4.50
2019-05-01T12:53:12.218Z,4.80
2019-05-01T12:56:15.437Z,4.40
2019-05-01T12:59:17.029Z,4.40
2019-05-01T13:02:18.338Z,4.20
2019-05-01T13:05:19.765Z,4.60
2019-05-01T13:08:21.248Z,4.53
2019-05-01T13:11:22.626Z,4.80
2019-05-01T13:14:24.126Z,4.60
2019-05-01T13:17:25.399Z,5.25
2019-05-01T13:20:26.697Z,4.78
2019-05-01T13:23:28.021Z,5.72
2019-05-01T13:26:34.217Z,7.87
2019-05-01T13:29:40.457Z,7.90
2019-05-01T13:32:46.820Z,7.65
2019-05-01T13:35:48.461Z,7.53
2019-05-01T13:38:49.942Z,10.38
2019-05-01T13:41:51.235Z,8.13
2019-05-01T13:44:53.126Z,7.85
2019-05-01T13:47:54.894Z,11.95
2019-05-01T13:50:56.599Z,7.20
2019-05-01T13:53:59.866Z,6.00
2019-05-01T13:57:01.784Z,6.30
2019-05-01T14:00:06.558Z,10.78
2019-05-01T14:03:07.970Z,24.72
2019-05-01T14:06:09.622Z,27.02
2019-05-01T14:09:12.830Z,12.98
2019-05-01T14:12:14.149Z,7.85
2019-05-01T14:15:15.549Z,10.50
2019-05-01T14:18:17.318Z,9.73
2019-05-01T14:21:20.625Z,8.75
2019-05-01T14:24:26.786Z,9.45
2019-05-01T14:27:28.564Z,7.83
2019-05-01T14:30:30.065Z,11.60
2019-05-01T14:33:31.452Z,8.68
2019-05-01T14:36:33.238Z,7.83
2019-05-01T14:39:34.566Z,9.05
2019-05-01T14:42:36.458Z,7.20
2019-05-01T14:49:03.058Z,10.03
2019-05-01T14:52:04.359Z,8.88
2019-05-01T14:55:06.761Z,10.72
2019-05-01T14:58:08.730Z,8.88
2019-05-01T15:01:10.309Z,8.75
2019-05-01T15:04:11.739Z,9.38
2019-05-01T15:07:13.176Z,7.17
2019-05-01T15:10:14.678Z,6.80
2019-05-01T15:13:34.571Z,7.47
2019-05-01T15:16:37.883Z,6.97
2019-05-01T15:19:43.978Z,6.60
2019-05-01T15:22:45.377Z,6.75
2019-05-01T15:25:46.986Z,7.25
2019-05-01T15:28:48.384Z,7.50
2019-05-01T15:31:49.958Z,9.20
2019-05-01T15:34:51.344Z,8.18
2019-05-01T15:37:56.842Z,7.65
2019-05-01T15:41:00.551Z,9.13
2019-05-01T15:44:05.146Z,7.95
2019-05-01T15:47:06.492Z,8.08
2019-05-01T15:50:08.742Z,7.78
2019-05-01T15:53:10.030Z,8.08
2019-05-01T15:56:12.362Z,11.80
2019-05-01T15:59:13.641Z,11.48
2019-05-01T16:02:15.122Z,8.48
2019-05-01T16:05:17.162Z,18.90
2019-05-01T16:08:18.479Z,25.72
2019-05-01T16:11:38.237Z,17.37
2019-05-01T16:14:39.959Z,9.05
2019-05-01T16:17:41.273Z,7.47
2019-05-01T16:20:43.038Z,7.83
2019-05-01T16:23:44.303Z,7.25
2019-05-01T16:26:46.048Z,7.35
2019-05-01T16:29:47.458Z,7.28
2019-05-01T16:32:50.116Z,7.55
2019-05-01T16:35:52.802Z,8.65
2019-05-01T16:39:01.861Z,8.40
2019-05-01T16:42:03.603Z,8.55
2019-05-01T16:45:06.455Z,9.05
2019-05-01T16:48:07.958Z,8.63
2019-05-01T16:51:09.265Z,14.13
2019-05-01T16:54:13.835Z,15.93
2019-05-01T16:57:15.321Z,23.73
2019-05-01T17:00:21.776Z,20.15
2019-05-01T17:03:27.859Z,17.30
2019-05-01T17:06:40.448Z,19.30
2019-05-01T17:10:00.629Z,20.37
2019-05-01T17:13:04.834Z,18.27
2019-05-01T17:16:06.799Z,18.85
2019-05-01T17:19:08.654Z,16.80
2019-05-01T17:22:14.442Z,14.70
2019-05-01T17:25:13.386Z,17.75
2019-05-01T17:28:14.713Z,18.70
2019-05-01T17:31:16.168Z,18.73
2019-05-01T17:34:18.079Z,19.02
2019-05-01T17:37:21.737Z,19.90
2019-05-01T17:40:23.211Z,17.48
2019-05-01T17:43:24.952Z,16.77
2019-05-01T17:46:26.841Z,17.80
2019-05-01T17:49:29.287Z,17.60
2019-05-01T17:52:30.597Z,17.90
2019-05-01T17:55:32.422Z,17.23
2019-05-01T17:58:33.715Z,16.42
2019-05-01T18:01:41.492Z,15.90
2019-05-01T18:04:50.363Z,16.55
2019-05-01T18:07:56.709Z,15.58
2019-05-01T18:10:59.880Z,15.83
2019-05-01T18:14:01.407Z,16.73
2019-05-01T18:17:03.144Z,19.00
2019-05-01T18:20:04.832Z,21.35
2019-05-01T18:23:24.866Z,22.15
2019-05-01T18:26:43.195Z,22.62
2019-05-01T18:29:44.718Z,24.47
2019-05-01T18:32:49.409Z,25.15
2019-05-01T18:35:50.521Z,25.52
2019-05-01T18:38:59.665Z,24.45
2019-05-01T18:42:03.336Z,25.30
2019-05-01T18:45:09.591Z,23.77
2019-05-01T18:48:10.860Z,26.80
2019-05-01T18:51:12.811Z,27.25
2019-05-01T18:54:14.359Z,25.68
2019-05-01T19:09:30.126Z,30.82
2019-05-01T19:12:31.474Z,37.23
2019-05-01T19:23:40.680Z,56.90
2019-05-01T19:26:42.615Z,55.03
2019-05-01T19:29:45.210Z,66.80
2019-05-01T19:32:47.993Z,71.07
2019-05-01T19:35:50.803Z,65.60
2019-05-01T19:38:52.014Z,57.90
2019-05-01T19:41:54.651Z,62.35
2019-05-01T19:44:58.080Z,58.48
2019-05-01T19:47:59.358Z,55.48
2019-05-01T19:51:00.870Z,51.18
2019-05-01T19:54:02.449Z,50.33
2019-05-01T19:57:03.877Z,46.68
2019-05-01T20:00:07.237Z,43.05
2019-05-01T20:03:08.653Z,43.38
2019-05-01T20:06:10.159Z,33.60
2019-05-01T20:09:11.443Z,36.85
2019-05-01T20:12:12.773Z,39.10
2019-05-01T20:15:14.166Z,39.10
2019-05-01T20:18:15.719Z,36.05
2019-05-01T20:21:17.163Z,34.33
2019-05-01T20:24:19.304Z,29.42
2019-05-01T20:27:20.950Z,34.10
2019-05-01T20:30:22.560Z,29.87
2019-05-01T20:33:23.847Z,30.85
2019-05-01T20:36:26.209Z,31.65
2019-05-01T20:39:27.497Z,31.42
2019-05-01T20:42:29.326Z,31.90
2019-05-01T20:45:30.856Z,31.65
2019-05-01T20:48:32.330Z,29.72
2019-05-01T20:51:33.990Z,28.77
2019-05-01T20:54:35.400Z,29.65
2019-05-01T20:57:49.753Z,31.35
2019-05-01T21:00:54.726Z,22.52
2019-05-01T21:03:58.087Z,24.15
2019-05-01T21:07:10.511Z,26.37
2019-05-01T21:10:24.279Z,24.87
2019-05-01T21:13:17.834Z,22.30
2019-05-01T21:16:19.010Z,19.87
2019-05-01T21:19:20.434Z,20.72
2019-05-01T21:22:23.446Z,20.05
2019-05-01T21:25:26.885Z,19.57
2019-05-01T21:28:29.040Z,18.75
2019-05-01T21:31:30.495Z,18.45
2019-05-01T21:34:33.360Z,18.55
2019-05-01T21:37:35.128Z,19.10
2019-05-01T21:40:41.028Z,18.32
2019-05-01T21:43:42.486Z,18.70
2019-05-01T21:46:43.942Z,18.42
2019-05-01T21:49:45.954Z,19.42
2019-05-01T21:52:47.454Z,17.57
2019-05-01T21:55:48.758Z,17.67
2019-05-01T21:58:50.297Z,17.10
2019-05-01T22:01:52.328Z,16.97
2019-05-01T22:04:53.875Z,16.37
2019-05-01T22:07:58.642Z,16.55
2019-05-01T22:11:01.871Z,16.17
2019-05-01T22:14:03.890Z,14.87
2019-05-01T22:17:07.133Z,15.93
2019-05-01T22:20:10.653Z,16.12
2019-05-01T22:23:17.024Z,16.50
2019-05-01T22:26:17.534Z,15.72
2019-05-01T22:29:27.288Z,16.52
2019-05-01T22:32:32.280Z,15.60
2019-05-01T22:35:36.610Z,16.62
2019-05-01T22:38:38.198Z,16.05
2019-05-01T22:41:39.497Z,16.12
2019-05-01T22:44:40.988Z,15.70
2019-05-01T22:47:45.953Z,15.78
2019-05-01T22:50:46.849Z,16.25
2019-05-01T22:53:50.152Z,16.15
2019-05-01T22:56:51.857Z,15.83
2019-05-01T22:59:53.237Z,15.53
2019-05-01T23:02:55.073Z,16.12
2019-05-01T23:05:56.350Z,15.95
2019-05-01T23:08:57.877Z,16.12
2019-05-01T23:11:59.350Z,15.78
2019-05-01T23:15:00.783Z,15.50
2019-05-01T23:18:02.178Z,15.25
2019-05-01T23:21:03.942Z,14.87
2019-05-01T23:24:05.314Z,15.20
2019-05-01T23:27:06.861Z,15.50
2019-05-01T23:30:10.137Z,15.70
2019-05-01T23:33:11.778Z,15.65
2019-05-01T23:36:23.338Z,16.17
2019-05-01T23:39:16.381Z,15.55
2019-05-01T23:42:17.696Z,16.10
2019-05-01T23:45:19.207Z,15.68
2019-05-01T23:48:20.469Z,17.27
2019-05-01T23:51:23.675Z,17.40
2019-05-01T23:54:25.045Z,16.95
2019-05-01T23:57:26.633Z,16.17
